createdAt,value
2019-01-30T06:09:34.651Z,36.80
2019-01-30T06:12:04.153Z,35.40
2019-01-30T06:14:33.809Z,35.80
2019-01-30T06:17:03.239Z,36.10
2019-01-30T06:19:31.929Z,36.20
2019-01-30T06:22:00.938Z,36.20
2019-01-30T06:24:29.684Z,36.20
2019-01-30T06:26:58.633Z,36.20
2019-01-30T06:29:28.129Z,36.20
2019-01-30T06:31:57.222Z,36.20
2019-01-30T06:34:26.657Z,36.20
2019-01-30T06:36:55.808Z,36.10
2019-01-30T06:39:24.543Z,36.10
2019-01-30T06:41:54.332Z,36.10
2019-01-30T06:44:23.842Z,36.00
2019-01-30T06:46:53.064Z,36.00
2019-01-30T06:49:21.541Z,35.90
2019-01-30T06:51:50.257Z,35.90
2019-01-30T06:54:19.073Z,35.90
2019-01-30T06:56:48.351Z,36.20
2019-01-30T06:59:17.488Z,36.40
2019-01-30T07:01:46.536Z,36.70
2019-01-30T07:04:15.224Z,36.70
2019-01-30T07:06:45.192Z,36.80
2019-01-30T07:09:14.717Z,36.80
2019-01-30T07:11:44.564Z,36.90
2019-01-30T07:14:14.150Z,36.90
2019-01-30T07:16:44.813Z,36.80
2019-01-30T07:19:14.125Z,36.70
2019-01-30T07:21:43.349Z,36.70
2019-01-30T07:24:12.573Z,36.50
2019-01-30T07:26:41.463Z,36.40
2019-01-30T07:29:10.302Z,36.40
2019-01-30T07:31:38.873Z,36.30
2019-01-30T07:34:07.792Z,36.20
2019-01-30T07:36:36.508Z,36.00
2019-01-30T07:39:08.627Z,36.00
2019-01-30T07:41:39.136Z,35.50
2019-01-30T07:44:08.995Z,35.70
2019-01-30T07:46:38.735Z,35.70
2019-01-30T07:49:08.329Z,35.60
2019-01-30T07:51:38.740Z,35.40
2019-01-30T07:54:07.692Z,35.20
2019-01-30T07:56:37.219Z,35.10
2019-01-30T07:59:06.907Z,35.20
2019-01-30T08:01:37.548Z,35.10
2019-01-30T08:04:06.970Z,35.20
2019-01-30T08:06:35.786Z,35.40
2019-01-30T08:09:08.543Z,35.40
2019-01-30T08:11:37.431Z,35.40
2019-01-30T08:14:06.362Z,35.50
2019-01-30T08:16:35.710Z,35.50
2019-01-30T08:19:05.627Z,35.20
2019-01-30T08:21:35.050Z,35.40
2019-01-30T08:24:04.262Z,35.90
2019-01-30T08:26:33.070Z,35.30
2019-01-30T08:29:02.274Z,35.30
2019-01-30T08:31:31.421Z,35.20
2019-01-30T08:34:00.833Z,35.20
2019-01-30T08:36:29.655Z,35.00
2019-01-30T08:38:58.690Z,35.00
2019-01-30T08:41:27.582Z,34.80
2019-01-30T08:43:58.079Z,34.80
2019-01-30T08:46:26.068Z,34.80
2019-01-30T08:48:55.818Z,34.60
2019-01-30T08:51:24.986Z,34.50
2019-01-30T08:53:54.486Z,34.60
2019-01-30T08:56:25.104Z,34.50
2019-01-30T08:58:54.228Z,35.30
2019-01-30T09:01:23.785Z,34.50
2019-01-30T09:03:53.289Z,34.60
2019-01-30T09:06:22.137Z,34.50
2019-01-30T09:08:50.964Z,34.40
2019-01-30T09:11:21.234Z,34.50
2019-01-30T09:13:50.401Z,34.90
2019-01-30T09:16:19.298Z,34.40
2019-01-30T09:18:48.407Z,34.30
2019-01-30T09:23:48.091Z,34.00
2019-01-30T09:26:17.251Z,33.80
2019-01-30T09:28:46.437Z,33.60
2019-01-30T09:31:16.953Z,33.60
2019-01-30T09:36:15.727Z,33.60
2019-01-30T09:38:45.051Z,33.70
2019-01-30T09:41:13.945Z,33.60
2019-01-30T09:43:44.146Z,33.60
2019-01-30T09:46:13.320Z,33.50
2019-01-30T09:48:42.868Z,33.60
2019-01-30T09:51:12.318Z,33.40
2019-01-30T09:53:41.623Z,33.40
2019-01-30T09:56:10.682Z,33.40
2019-01-30T09:58:39.809Z,33.40
2019-01-30T10:01:09.464Z,33.40
2019-01-30T10:03:38.540Z,34.10
2019-01-30T10:06:07.448Z,33.40
2019-01-30T10:08:36.896Z,33.00
2019-01-30T10:11:06.165Z,33.30
2019-01-30T10:13:37.357Z,33.30
2019-01-30T10:16:03.988Z,33.30
2019-01-30T10:18:33.101Z,33.30
2019-01-30T10:21:01.980Z,33.30
2019-01-30T10:23:33.476Z,33.40
2019-01-30T10:26:02.679Z,33.40
2019-01-30T10:28:32.264Z,33.30
2019-01-30T10:31:01.467Z,33.30
2019-01-30T10:33:31.016Z,33.30
2019-01-30T10:36:00.875Z,33.40
2019-01-30T10:38:30.365Z,33.40
2019-01-30T10:40:59.405Z,33.50
2019-01-30T10:43:28.674Z,33.50
2019-01-30T10:45:57.402Z,33.50
2019-01-30T10:48:27.220Z,33.60
2019-01-30T10:50:57.800Z,33.50
2019-01-30T10:53:26.669Z,33.50
2019-01-30T10:55:56.172Z,33.50
2019-01-30T10:58:25.372Z,33.60
2019-01-30T11:00:55.005Z,33.60
2019-01-30T11:03:24.952Z,33.70
2019-01-30T11:05:54.180Z,33.70
2019-01-30T11:08:23.669Z,33.80
2019-01-30T11:10:52.844Z,33.80
2019-01-30T11:13:22.392Z,34.50
2019-01-30T11:15:51.785Z,34.00
2019-01-30T11:18:20.561Z,34.00
2019-01-30T11:20:49.672Z,34.10
2019-01-30T11:23:18.851Z,34.10
2019-01-30T11:25:49.304Z,34.10
2019-01-30T11:28:18.846Z,34.30
2019-01-30T11:30:48.789Z,34.40
2019-01-30T11:33:18.296Z,34.70
2019-01-30T11:35:48.396Z,34.70
2019-01-30T11:38:17.329Z,34.70
2019-01-30T11:40:46.548Z,34.70
2019-01-30T11:43:16.092Z,34.60
2019-01-30T11:45:45.835Z,34.60
2019-01-30T11:48:14.798Z,34.60
2019-01-30T11:50:44.078Z,34.60
2019-01-30T11:53:13.006Z,34.60
2019-01-30T11:55:42.033Z,34.60
2019-01-30T11:58:11.308Z,34.60
2019-01-30T12:00:45.660Z,34.60
2019-01-30T12:03:15.506Z,34.50
2019-01-30T12:05:46.751Z,34.60
2019-01-30T12:08:16.248Z,34.60
2019-01-30T12:10:45.373Z,34.60
2019-01-30T12:13:14.875Z,34.60
2019-01-30T12:15:44.071Z,34.70
2019-01-30T12:18:13.447Z,34.70
2019-01-30T12:20:42.676Z,34.80
2019-01-30T12:23:11.460Z,34.90
2019-01-30T12:25:40.296Z,35.40
2019-01-30T12:28:10.467Z,35.80
2019-01-30T12:30:41.000Z,35.00
2019-01-30T12:33:10.525Z,34.80
2019-01-30T12:35:39.269Z,34.80
2019-01-30T12:38:08.044Z,34.90
2019-01-30T12:40:38.441Z,34.90
2019-01-30T12:43:07.387Z,34.80
2019-01-30T12:45:36.219Z,35.10
2019-01-30T12:48:06.460Z,35.10
2019-01-30T12:50:35.717Z,35.10
2019-01-30T12:53:06.038Z,35.00
2019-01-30T12:55:35.334Z,34.90
2019-01-30T12:58:04.925Z,35.00
2019-01-30T13:03:04.609Z,34.80
2019-01-30T13:05:35.249Z,34.80
2019-01-30T13:08:04.035Z,34.70
2019-01-30T13:10:34.308Z,34.70
2019-01-30T13:13:03.735Z,34.50
2019-01-30T13:15:32.860Z,34.50
2019-01-30T13:18:01.888Z,34.50
2019-01-30T13:20:31.399Z,34.40
2019-01-30T13:23:00.806Z,34.30
2019-01-30T13:25:32.009Z,34.30
2019-01-30T13:28:01.966Z,34.30
2019-01-30T13:30:33.762Z,35.10
2019-01-30T13:33:02.982Z,34.10
2019-01-30T13:35:32.480Z,34.10
2019-01-30T13:38:02.787Z,34.00
2019-01-30T13:40:34.171Z,34.00
2019-01-30T13:43:03.023Z,34.00
2019-01-30T13:45:32.465Z,33.80
2019-01-30T13:48:01.402Z,33.80
2019-01-30T13:50:31.179Z,33.80
2019-01-30T13:53:00.323Z,33.70
2019-01-30T13:55:29.449Z,33.70
2019-01-30T14:00:30.917Z,33.70
2019-01-30T14:02:59.712Z,33.70
2019-01-30T14:05:31.508Z,33.60
2019-01-30T14:08:00.754Z,33.50
2019-01-30T14:10:30.047Z,33.60
2019-01-30T14:13:01.518Z,33.50
2019-01-30T14:15:30.839Z,33.50
2019-01-30T14:17:59.987Z,33.40
2019-01-30T14:20:28.961Z,33.50
2019-01-30T14:22:58.224Z,33.30
2019-01-30T14:25:29.121Z,33.30
2019-01-30T14:27:58.324Z,33.40
2019-01-30T14:30:31.281Z,33.30
2019-01-30T14:33:00.030Z,33.60
2019-01-30T14:35:31.549Z,33.40
2019-01-30T14:38:01.466Z,33.40
2019-01-30T14:40:31.171Z,33.70
2019-01-30T14:43:00.655Z,33.40
2019-01-30T14:45:30.897Z,33.30
2019-01-30T14:48:00.790Z,33.40
2019-01-30T14:50:30.069Z,33.30
2019-01-30T14:52:59.128Z,33.50
2019-01-30T14:55:28.215Z,33.60
2019-01-30T14:57:57.098Z,33.70
2019-01-30T15:00:30.544Z,33.90
2019-01-30T15:02:59.348Z,33.90
2019-01-30T15:05:28.213Z,34.00
2019-01-30T15:07:58.007Z,34.00
2019-01-30T15:10:27.686Z,34.10
2019-01-30T15:12:56.908Z,34.10
2019-01-30T15:15:27.548Z,34.10
2019-01-30T15:17:56.549Z,34.00
2019-01-30T15:22:55.468Z,34.20
2019-01-30T15:25:24.439Z,34.20
2019-01-30T15:27:54.212Z,34.10
2019-01-30T15:30:26.106Z,34.20
2019-01-30T15:32:55.184Z,34.20
2019-01-30T15:35:33.218Z,34.10
2019-01-30T15:37:54.902Z,34.20
2019-01-30T15:40:25.461Z,34.10
2019-01-30T15:42:54.289Z,34.10
2019-01-30T15:45:23.752Z,34.10
2019-01-30T15:47:52.826Z,34.10
2019-01-30T15:50:24.951Z,34.00
2019-01-30T15:52:56.044Z,34.10
2019-01-30T15:55:25.818Z,34.10
2019-01-30T15:57:58.296Z,34.10
2019-01-30T16:00:32.509Z,34.20
2019-01-30T16:03:01.701Z,34.20
2019-01-30T16:05:30.548Z,34.20
2019-01-30T16:08:00.815Z,34.20
2019-01-30T16:10:30.059Z,34.20
2019-01-30T16:12:59.529Z,34.20
2019-01-30T16:15:31.447Z,34.20
2019-01-30T16:18:00.955Z,34.20
2019-01-30T16:20:31.199Z,34.20
2019-01-30T16:22:59.972Z,34.20
2019-01-30T16:25:29.323Z,34.30
2019-01-30T16:27:58.225Z,34.30
2019-01-30T16:30:28.367Z,34.20
2019-01-30T16:32:58.348Z,34.30
2019-01-30T16:35:30.430Z,34.40
2019-01-30T16:37:59.247Z,34.40
2019-01-30T16:40:31.146Z,34.40
2019-01-30T16:43:00.344Z,34.40
2019-01-30T16:45:29.787Z,34.50
2019-01-30T16:47:59.471Z,34.50
2019-01-30T16:50:29.645Z,34.50
2019-01-30T16:52:58.788Z,34.50
2019-01-30T16:55:27.849Z,34.20
2019-01-30T16:57:56.641Z,34.50
2019-01-30T17:00:28.188Z,34.50
2019-01-30T17:02:58.836Z,34.60
2019-01-30T17:05:29.500Z,34.60
2019-01-30T17:07:58.467Z,34.60
2019-01-30T17:10:27.970Z,34.60
2019-01-30T17:12:57.350Z,34.70
2019-01-30T17:15:28.825Z,34.60
2019-01-30T17:17:57.881Z,34.70
2019-01-30T17:20:29.916Z,34.60
2019-01-30T17:22:59.360Z,34.70
2019-01-30T17:25:28.260Z,34.70
2019-01-30T17:27:57.127Z,34.60
2019-01-30T17:32:58.031Z,34.80
2019-01-30T17:35:28.855Z,34.80
2019-01-30T17:37:59.252Z,34.80
2019-01-30T17:40:30.248Z,34.80
2019-01-30T17:42:59.625Z,34.80
2019-01-30T17:45:28.877Z,35.10
2019-01-30T17:50:27.041Z,34.90
2019-01-30T17:52:56.472Z,35.10
2019-01-30T17:55:26.329Z,34.90
2019-01-30T17:57:54.411Z,35.00
2019-01-30T18:00:31.651Z,35.00
2019-01-30T18:03:00.952Z,35.00
2019-01-30T18:05:30.297Z,35.10
2019-01-30T18:07:59.041Z,34.90
2019-01-30T18:10:28.292Z,35.00
2019-01-30T18:12:57.808Z,35.00
2019-01-30T18:15:26.637Z,35.10
2019-01-30T18:17:55.803Z,35.10
2019-01-30T18:20:26.420Z,35.00
2019-01-30T18:22:55.833Z,34.90
2019-01-30T18:25:25.233Z,34.90
2019-01-30T18:27:54.011Z,34.80
2019-01-30T18:30:23.264Z,34.90
2019-01-30T18:32:52.392Z,34.90
2019-01-30T18:35:21.847Z,34.90
2019-01-30T18:37:51.895Z,34.90
2019-01-30T18:40:21.677Z,34.80
2019-01-30T18:42:51.046Z,34.80
2019-01-30T18:45:22.183Z,34.80
2019-01-30T18:47:51.287Z,34.80
2019-01-30T18:50:21.956Z,34.90
2019-01-30T18:52:50.965Z,35.00
2019-01-30T18:55:20.551Z,35.10
2019-01-30T18:57:49.747Z,35.10
2019-01-30T19:00:25.533Z,34.80
2019-01-30T19:02:55.924Z,34.80
2019-01-30T19:05:23.870Z,34.80
2019-01-30T19:07:52.900Z,34.70
2019-01-30T19:10:21.652Z,34.80
2019-01-30T19:12:50.948Z,34.80
2019-01-30T19:15:21.562Z,34.80
2019-01-30T19:17:52.088Z,34.70
2019-01-30T19:20:26.028Z,34.70
2019-01-30T19:22:56.431Z,34.80
2019-01-30T19:25:26.131Z,34.80
2019-01-30T19:27:56.150Z,34.80
2019-01-30T19:30:27.037Z,34.50
2019-01-30T19:32:56.300Z,34.60
2019-01-30T19:35:25.414Z,34.60
2019-01-30T19:37:55.208Z,34.70
2019-01-30T19:40:24.287Z,34.70
2019-01-30T19:42:53.523Z,34.80
2019-01-30T19:45:24.027Z,34.50
2019-01-30T19:47:53.060Z,34.70
2019-01-30T19:50:26.728Z,34.60
2019-01-30T19:52:56.565Z,34.60
2019-01-30T19:55:25.331Z,34.60
2019-01-30T19:57:55.135Z,35.60
2019-01-30T20:00:26.657Z,35.10
2019-01-30T20:02:56.146Z,35.10
2019-01-30T20:05:25.508Z,35.20
2019-01-30T20:07:54.794Z,35.20
2019-01-30T20:10:28.409Z,35.30
2019-01-30T20:12:58.339Z,35.30
2019-01-30T20:15:28.203Z,35.40
2019-01-30T20:17:57.974Z,35.30
2019-01-30T20:20:27.142Z,35.30
2019-01-30T20:22:56.279Z,35.40
2019-01-30T20:25:27.395Z,35.30
2019-01-30T20:27:58.121Z,35.20
2019-01-30T20:30:27.983Z,35.30
2019-01-30T20:32:57.673Z,35.30
2019-01-30T20:35:27.041Z,35.40
2019-01-30T20:37:55.852Z,35.00
2019-01-30T20:40:26.658Z,35.10
2019-01-30T20:42:56.135Z,35.00
2019-01-30T20:45:33.428Z,34.90
2019-01-30T20:47:56.016Z,35.00
2019-01-30T20:50:28.381Z,34.80
2019-01-30T20:52:57.549Z,34.80
2019-01-30T20:55:26.553Z,34.70
2019-01-30T20:57:55.608Z,34.50
2019-01-30T21:00:29.167Z,33.80
2019-01-30T21:05:27.124Z,34.10
2019-01-30T21:07:56.840Z,34.00
2019-01-30T21:10:28.459Z,33.90
2019-01-30T21:12:58.002Z,33.80
2019-01-30T21:15:26.744Z,33.90
2019-01-30T21:17:55.943Z,34.00
2019-01-30T21:20:25.103Z,34.00
2019-01-30T21:22:54.651Z,34.00
2019-01-30T21:25:23.455Z,34.00
2019-01-30T21:27:52.290Z,34.00
2019-01-30T21:30:23.877Z,34.10
2019-01-30T21:32:53.024Z,34.80
2019-01-30T21:35:23.853Z,34.20
2019-01-30T21:37:52.719Z,34.30
2019-01-30T21:40:22.317Z,34.70
2019-01-30T21:42:51.396Z,34.30
2019-01-30T21:45:22.128Z,34.30
2019-01-30T21:47:51.175Z,34.40
2019-01-30T21:50:20.123Z,34.40
2019-01-30T21:52:48.937Z,34.40
2019-01-30T21:55:19.755Z,34.30
